Time;durP1;ratioP1;P1;durP2;ratioP2;P2;SDS_P1;SDS_P2;PMS_P1;PMS_P2;Temp;Humidity;BMP_temperature;BMP_pressure;BME280_temperature;BME280_humidity;BME280_pressure;Samples;Min_cycle;Max_cycle;Signal;HPM_P1;HPM_P2
2023/09/16 00:01:19;;;;;;;1.83;1.70;;;23.00;99.90;;;;;;5088605;28;20442;-84
2023/09/16 00:03:45;;;;;;;2.47;1.77;;;23.00;99.90;;;;;;5077913;28;20024;-84
2023/09/16 00:06:12;;;;;;;2.17;1.73;;;23.00;99.90;;;;;;5084825;28;20035;-85
2023/09/16 00:08:38;;;;;;;1.90;1.70;;;23.00;99.90;;;;;;5074431;28;20024;-84
2023/09/16 00:11:04;;;;;;;2.08;1.90;;;23.00;99.90;;;;;;5079498;28;20370;-84
2023/09/16 00:13:29;;;;;;;2.63;1.63;;;22.90;99.90;;;;;;5070276;28;20022;-84
2023/09/16 00:15:55;;;;;;;3.42;2.00;;;22.90;99.90;;;;;;5082328;28;20438;-83
2023/09/16 00:18:21;;;;;;;3.72;1.90;;;22.90;99.90;;;;;;5071395;28;20032;-83
2023/09/16 00:20:50;;;;;;;1.90;1.77;;;22.90;99.90;;;;;;5087383;28;20016;-87
2023/09/16 00:23:16;;;;;;;1.75;1.65;;;22.90;99.90;;;;;;5090869;28;20032;-84
2023/09/16 00:25:42;;;;;;;5.13;2.10;;;22.90;99.90;;;;;;5074729;28;20437;-88
2023/09/16 00:28:07;;;;;;;2.05;1.60;;;22.90;99.90;;;;;;5068516;28;20116;-84
2023/09/16 00:30:37;;;;;;;5.22;1.88;;;22.90;99.90;;;;;;5069974;28;20056;-85
2023/09/16 00:33:03;;;;;;;1.70;1.60;;;22.90;99.90;;;;;;5089452;28;20080;-84
2023/09/16 00:35:29;;;;;;;2.83;1.80;;;22.90;99.90;;;;;;5086849;28;20039;-83
2023/09/16 00:37:55;;;;;;;4.15;2.20;;;22.90;99.90;;;;;;5069095;28;20035;-85
2023/09/16 00:40:21;;;;;;;2.83;1.73;;;22.90;99.90;;;;;;5069467;28;20025;-83
2023/09/16 00:42:46;;;;;;;5.80;2.00;;;22.90;99.90;;;;;;5068922;28;20021;-84
2023/09/16 00:45:14;;;;;;;3.70;1.90;;;22.80;99.90;;;;;;5067175;28;20059;-84
2023/09/16 00:47:40;;;;;;;3.20;1.87;;;22.80;99.90;;;;;;5067501;28;20123;-84
2023/09/16 00:50:07;;;;;;;2.05;1.90;;;22.80;99.90;;;;;;5087809;28;20028;-84
2023/09/16 00:52:40;;;;;;;1.70;1.50;;;22.80;99.90;;;;;;5087732;28;20044;-83
2023/09/16 00:55:06;;;;;;;2.83;1.70;;;22.80;99.90;;;;;;5079269;28;20600;-85
2023/09/16 00:57:32;;;;;;;1.70;1.60;;;22.70;99.90;;;;;;5067844;28;20426;-88
2023/09/16 00:59:58;;;;;;;3.55;1.80;;;22.70;99.90;;;;;;5085054;28;20028;-84
2023/09/16 01:02:26;;;;;;;2.05;1.85;;;22.70;99.90;;;;;;5088006;28;20140;-87
2023/09/16 01:04:52;;;;;;;2.05;1.80;;;22.70;99.90;;;;;;5073242;28;20021;-87
2023/09/16 01:07:17;;;;;;;1.88;1.70;;;22.70;99.90;;;;;;5082755;28;20028;-84
2023/09/16 01:09:43;;;;;;;3.30;2.00;;;22.60;99.90;;;;;;5084187;28;20077;-87
2023/09/16 01:12:09;;;;;;;2.17;1.98;;;22.50;99.90;;;;;;5087419;28;20081;-84
2023/09/16 01:14:34;;;;;;;2.20;1.92;;;22.60;99.90;;;;;;5086891;28;20024;-86
2023/09/16 01:17:23;;;;;;;3.38;2.15;;;22.50;99.90;;;;;;5089264;28;20100;-84
2023/09/16 01:20:01;;;;;;;2.80;2.10;;;22.50;99.90;;;;;;5080561;28;20070;-84
2023/09/16 01:22:28;;;;;;;2.75;1.90;;;22.50;99.90;;;;;;5088853;28;20521;-84
2023/09/16 01:25:00;;;;;;;3.15;1.90;;;22.40;99.90;;;;;;5089070;28;20020;-84
2023/09/16 01:27:27;;;;;;;3.47;1.90;;;22.40;99.90;;;;;;5087397;28;20032;-84
2023/09/16 01:29:52;;;;;;;2.70;1.90;;;22.40;99.90;;;;;;5087642;28;20074;-87
2023/09/16 01:32:25;;;;;;;7.20;1.80;;;22.40;99.90;;;;;;5089653;28;20040;-88
2023/09/16 01:34:54;;;;;;;2.33;2.13;;;22.40;99.90;;;;;;5086604;28;20433;-84
2023/09/16 01:37:23;;;;;;;3.10;1.80;;;22.40;99.90;;;;;;5087503;28;20441;-84
2023/09/16 01:39:57;;;;;;;4.72;2.08;;;22.30;99.90;;;;;;5088155;28;20050;-86
2023/09/16 01:42:24;;;;;;;1.95;1.85;;;22.30;99.90;;;;;;5088729;28;20055;-86
2023/09/16 01:44:54;;;;;;;1.77;1.65;;;22.30;99.90;;;;;;5087720;28;20395;-86
2023/09/16 01:47:20;;;;;;;3.22;1.90;;;22.30;99.90;;;;;;5088691;28;20051;-84
2023/09/16 01:49:46;;;;;;;4.47;2.20;;;22.20;99.90;;;;;;5088655;28;20479;-85
2023/09/16 01:52:11;;;;;;;14.57;2.13;;;22.20;99.90;;;;;;5081600;28;20024;-84
2023/09/16 01:54:37;;;;;;;7.63;2.10;;;22.20;99.90;;;;;;5077498;28;20032;-86
2023/09/16 01:57:03;;;;;;;2.47;1.90;;;22.20;99.90;;;;;;5086178;28;20035;-84
2023/09/16 01:59:28;;;;;;;1.98;1.80;;;22.20;99.90;;;;;;5088469;28;20017;-84
2023/09/16 02:01:54;;;;;;;2.20;1.95;;;22.20;99.90;;;;;;5075877;28;20032;-88
2023/09/16 02:04:19;;;;;;;2.05;1.77;;;22.10;99.90;;;;;;5068253;28;20063;-84
2023/09/16 02:06:46;;;;;;;3.50;1.90;;;22.10;99.90;;;;;;5067900;28;20044;-88
2023/09/16 02:09:13;;;;;;;2.92;1.98;;;22.10;99.90;;;;;;5081178;28;20407;-84
2023/09/16 02:11:39;;;;;;;2.13;1.88;;;22.00;99.90;;;;;;5084947;28;20043;-84
2023/09/16 02:14:04;;;;;;;2.38;1.92;;;22.00;99.90;;;;;;5087281;28;20028;-84
2023/09/16 02:16:31;;;;;;;3.63;2.00;;;21.90;99.90;;;;;;5082567;28;20020;-87
2023/09/16 02:18:57;;;;;;;2.10;1.90;;;21.90;99.90;;;;;;5073526;28;20025;-83
2023/09/16 02:21:22;;;;;;;5.78;2.10;;;21.80;99.90;;;;;;5075441;28;20081;-84
2023/09/16 02:23:48;;;;;;;2.55;2.08;;;21.80;99.90;;;;;;5089272;28;20077;-84
2023/09/16 02:26:14;;;;;;;4.95;1.83;;;21.70;99.90;;;;;;5072972;28;20036;-84
2023/09/16 02:28:40;;;;;;;3.05;2.10;;;21.70;99.90;;;;;;5066515;28;20107;-84
2023/09/16 02:31:09;;;;;;;2.58;2.08;;;21.70;99.90;;;;;;5070313;28;20034;-85
2023/09/16 02:33:35;;;;;;;4.45;2.10;;;21.70;99.90;;;;;;5086669;28;20024;-84
2023/09/16 02:36:01;;;;;;;2.88;1.70;;;21.70;99.90;;;;;;5088331;28;20429;-84
2023/09/16 02:38:26;;;;;;;2.05;1.80;;;21.70;99.90;;;;;;5086137;28;20031;-86
2023/09/16 02:40:52;;;;;;;3.53;1.95;;;21.70;99.90;;;;;;5084048;28;20035;-83
2023/09/16 02:43:18;;;;;;;2.63;1.75;;;21.70;99.90;;;;;;5068522;28;20112;-84
2023/09/16 02:45:43;;;;;;;2.20;1.90;;;21.70;99.90;;;;;;5067592;28;20059;-83
2023/09/16 02:48:10;;;;;;;2.67;2.15;;;21.70;99.90;;;;;;5073243;28;20048;-86
2023/09/16 02:50:39;;;;;;;2.75;2.00;;;21.60;99.90;;;;;;5080136;28;20027;-84
2023/09/16 02:53:05;;;;;;;3.85;1.90;;;21.60;99.90;;;;;;5085123;28;20025;-83
2023/09/16 02:55:32;;;;;;;2.08;1.88;;;21.60;99.90;;;;;;5082271;28;20021;-83
2023/09/16 02:57:59;;;;;;;2.30;2.10;;;21.50;99.90;;;;;;5076141;28;20107;-86
2023/09/16 03:00:25;;;;;;;4.00;2.30;;;21.50;99.90;;;;;;5083126;28;20021;-84
2023/09/16 03:02:50;;;;;;;3.47;2.00;;;21.50;99.90;;;;;;5083623;28;20476;-83
2023/09/16 03:05:16;;;;;;;2.20;2.00;;;21.60;99.90;;;;;;5068220;28;20036;-84
2023/09/16 03:07:44;;;;;;;2.40;2.08;;;21.60;99.90;;;;;;5070467;28;20028;-88
2023/09/16 03:10:10;;;;;;;4.55;2.38;;;21.60;99.90;;;;;;5087753;28;20050;-83
2023/09/16 03:12:35;;;;;;;2.55;2.35;;;21.60;99.90;;;;;;5085470;28;20111;-84
2023/09/16 03:15:01;;;;;;;4.75;2.00;;;21.60;99.90;;;;;;5079086;28;20027;-84
2023/09/16 03:17:27;;;;;;;5.90;2.05;;;21.50;99.90;;;;;;5087673;28;20054;-87
2023/09/16 03:19:53;;;;;;;2.75;2.17;;;21.50;99.90;;;;;;5089694;28;20025;-88
2023/09/16 03:22:19;;;;;;;3.65;2.10;;;21.50;99.90;;;;;;5087226;28;20038;-87
2023/09/16 03:24:44;;;;;;;3.20;2.25;;;21.50;99.90;;;;;;5092335;28;20399;-85
2023/09/16 03:27:10;;;;;;;2.35;2.15;;;21.50;99.90;;;;;;5102137;28;20032;-83
2023/09/16 03:29:35;;;;;;;2.97;2.05;;;21.50;99.90;;;;;;5091547;28;20077;-83
2023/09/16 03:32:01;;;;;;;5.00;2.40;;;21.50;99.90;;;;;;5091520;28;20526;-83
2023/09/16 03:34:27;;;;;;;2.28;2.08;;;21.50;99.90;;;;;;5090504;28;20020;-83
2023/09/16 03:36:53;;;;;;;3.75;2.20;;;21.40;99.90;;;;;;5098389;28;20039;-83
2023/09/16 03:39:19;;;;;;;3.28;2.25;;;21.50;99.90;;;;;;5092436;28;20028;-83
2023/09/16 03:41:45;;;;;;;2.60;1.95;;;21.40;99.90;;;;;;5092207;28;20451;-84
2023/09/16 03:44:12;;;;;;;3.00;2.58;;;21.40;99.90;;;;;;5091305;28;20119;-85
2023/09/16 03:46:39;;;;;;;3.83;2.10;;;21.30;99.90;;;;;;5091649;28;20085;-86
2023/09/16 03:49:05;;;;;;;4.60;2.20;;;21.30;99.90;;;;;;5091258;28;20016;-86
2023/09/16 03:51:32;;;;;;;4.60;2.50;;;21.30;99.90;;;;;;5090175;28;20031;-84
2023/09/16 03:53:59;;;;;;;2.50;2.30;;;21.20;99.90;;;;;;5090956;28;20467;-84
2023/09/16 03:56:24;;;;;;;3.35;2.40;;;21.20;99.90;;;;;;5094516;28;20023;-84
2023/09/16 03:58:50;;;;;;;3.42;1.92;;;21.20;99.90;;;;;;5127663;27;20028;-84
2023/09/16 04:01:16;;;;;;;3.00;2.33;;;21.20;99.90;;;;;;5111644;28;20032;-85
2023/09/16 04:03:42;;;;;;;2.53;2.33;;;21.20;99.90;;;;;;5111353;28;20020;-84
2023/09/16 04:06:08;;;;;;;2.30;2.10;;;21.20;99.90;;;;;;5086447;28;20055;-85
2023/09/16 04:08:33;;;;;;;2.83;2.30;;;21.20;99.90;;;;;;5089945;28;20048;-86
2023/09/16 04:10:59;;;;;;;4.45;2.47;;;21.20;99.90;;;;;;5089636;28;20025;-83
2023/09/16 04:13:25;;;;;;;2.78;2.42;;;21.20;99.90;;;;;;5090926;28;20448;-85
2023/09/16 04:15:51;;;;;;;3.63;2.47;;;21.20;99.90;;;;;;5085759;28;20035;-86
2023/09/16 04:18:17;;;;;;;6.43;2.55;;;21.20;99.90;;;;;;5091940;28;20057;-84
2023/09/16 04:20:48;;;;;;;4.80;2.30;;;21.20;99.90;;;;;;5100931;28;20042;-85
2023/09/16 04:23:13;;;;;;;3.45;2.22;;;21.30;99.90;;;;;;5089116;28;20024;-84
2023/09/16 04:25:39;;;;;;;4.15;2.30;;;21.30;99.90;;;;;;5088698;28;20028;-87
2023/09/16 04:28:05;;;;;;;3.08;2.35;;;21.30;99.90;;;;;;5103827;28;20042;-85
2023/09/16 04:30:31;;;;;;;2.33;2.13;;;21.30;99.90;;;;;;5109415;28;20024;-87
2023/09/16 04:32:57;;;;;;;2.60;2.40;;;21.30;99.90;;;;;;5115560;27;20028;-86
2023/09/16 04:35:23;;;;;;;4.38;2.60;;;21.30;99.90;;;;;;5091360;28;20107;-86
2023/09/16 04:37:48;;;;;;;3.20;2.40;;;21.30;99.90;;;;;;5091389;28;20095;-86
2023/09/16 04:40:14;;;;;;;4.38;2.55;;;21.30;99.90;;;;;;5087719;28;20579;-85
2023/09/16 04:42:40;;;;;;;2.42;2.03;;;21.30;99.90;;;;;;5068954;28;20082;-88
2023/09/16 04:45:06;;;;;;;2.45;2.22;;;21.30;99.90;;;;;;5070046;28;20064;-84
2023/09/16 04:47:33;;;;;;;2.97;2.17;;;21.30;99.90;;;;;;5070200;28;20111;-88
2023/09/16 04:49:59;;;;;;;5.53;2.50;;;21.30;99.90;;;;;;5070170;28;20024;-88
2023/09/16 04:52:27;;;;;;;2.53;2.33;;;21.30;99.90;;;;;;5068806;28;20271;-84
2023/09/16 04:54:53;;;;;;;2.90;2.25;;;21.20;99.90;;;;;;5071032;28;20426;-85
2023/09/16 04:57:22;;;;;;;4.13;2.20;;;21.20;99.90;;;;;;5095780;28;20395;-83
2023/09/16 04:59:48;;;;;;;4.38;2.50;;;21.20;99.90;;;;;;5087708;28;20028;-83
2023/09/16 05:02:14;;;;;;;3.08;2.40;;;21.10;99.90;;;;;;5085179;28;20738;-84
2023/09/16 05:04:40;;;;;;;3.22;2.60;;;21.20;99.90;;;;;;5069368;28;20021;-85
2023/09/16 05:07:06;;;;;;;2.53;2.20;;;21.10;99.90;;;;;;5087307;28;20039;-83
2023/09/16 05:09:32;;;;;;;4.72;2.50;;;21.20;99.90;;;;;;5090531;28;20433;-84
2023/09/16 05:11:57;;;;;;;3.35;2.30;;;21.20;99.90;;;;;;5089036;28;20449;-84
2023/09/16 05:14:24;;;;;;;2.88;2.33;;;21.20;99.90;;;;;;5088910;28;20051;-83
2023/09/16 05:16:50;;;;;;;2.60;2.33;;;21.20;99.90;;;;;;5083400;28;20024;-87
2023/09/16 05:19:16;;;;;;;2.58;2.20;;;21.20;99.90;;;;;;5088157;28;20107;-83
2023/09/16 05:21:42;;;;;;;3.53;2.53;;;21.20;99.90;;;;;;5089784;28;20555;-86
2023/09/16 05:24:07;;;;;;;3.75;2.20;;;21.20;99.90;;;;;;5088409;28;20016;-87
2023/09/16 05:26:33;;;;;;;2.42;2.22;;;21.10;99.90;;;;;;5089677;28;20063;-87
2023/09/16 05:28:59;;;;;;;3.50;2.60;;;21.10;99.90;;;;;;5089663;28;20089;-88
2023/09/16 05:31:26;;;;;;;2.97;2.10;;;21.10;99.90;;;;;;5087382;28;20059;-88
2023/09/16 05:33:51;;;;;;;3.33;2.28;;;21.10;99.90;;;;;;5088638;28;20058;-87
2023/09/16 05:36:18;;;;;;;2.47;2.28;;;21.20;99.90;;;;;;5089836;28;20024;-85
2023/09/16 05:38:43;;;;;;;3.65;2.30;;;21.20;99.90;;;;;;5088546;28;20062;-90
2023/09/16 05:41:09;;;;;;;2.70;2.28;;;21.10;99.90;;;;;;5089813;28;20056;-86
2023/09/16 05:43:34;;;;;;;3.88;2.33;;;21.00;99.90;;;;;;5089922;28;20064;-87
2023/09/16 05:46:01;;;;;;;3.30;2.47;;;21.00;99.90;;;;;;5088615;28;20495;-88
2023/09/16 05:48:28;;;;;;;3.60;2.40;;;21.00;99.90;;;;;;5090490;28;20030;-87
2023/09/16 05:50:57;;;;;;;3.85;2.40;;;21.00;99.90;;;;;;5090594;28;20020;-85
2023/09/16 05:53:24;;;;;;;2.67;2.25;;;21.00;99.90;;;;;;5090391;28;20055;-87
2023/09/16 05:55:49;;;;;;;3.20;2.40;;;20.90;99.90;;;;;;5088262;28;20051;-86
2023/09/16 05:58:15;;;;;;;3.38;2.20;;;20.90;99.90;;;;;;5088429;28;20475;-86
2023/09/16 06:00:41;;;;;;;2.55;2.25;;;20.80;99.90;;;;;;5089614;28;20091;-91
2023/09/16 06:03:08;;;;;;;4.95;2.55;;;20.80;99.90;;;;;;5071219;28;20036;-88
2023/09/16 06:05:34;;;;;;;2.60;2.40;;;20.80;99.90;;;;;;5085300;28;20016;-89
2023/09/16 06:08:00;;;;;;;2.50;2.13;;;20.80;99.90;;;;;;5088262;28;20036;-90
2023/09/16 06:10:26;;;;;;;4.40;2.38;;;20.80;99.90;;;;;;5089721;28;20491;-90
2023/09/16 06:12:52;;;;;;;4.07;2.47;;;20.80;99.90;;;;;;5088569;28;20122;-89
2023/09/16 06:15:18;;;;;;;4.35;2.30;;;20.80;99.90;;;;;;5088179;28;20334;-91
2023/09/16 06:17:43;;;;;;;3.42;2.67;;;20.90;99.90;;;;;;5088566;28;20467;-88
2023/09/16 06:20:09;;;;;;;2.60;2.35;;;20.90;99.90;;;;;;5088824;28;20427;-86
2023/09/16 06:22:35;;;;;;;5.68;2.45;;;20.90;99.90;;;;;;5091347;28;20047;-91
2023/09/16 06:25:01;;;;;;;6.53;2.53;;;20.80;99.90;;;;;;5087408;28;20368;-85
2023/09/16 06:27:27;;;;;;;2.88;2.50;;;20.90;99.90;;;;;;5089417;28;20552;-88
2023/09/16 06:29:53;;;;;;;5.70;2.42;;;20.80;99.90;;;;;;5088589;28;20476;-90
2023/09/16 06:32:19;;;;;;;2.50;2.30;;;20.80;99.90;;;;;;5087102;28;20028;-92
2023/09/16 06:34:44;;;;;;;10.30;2.80;;;20.80;99.90;;;;;;5087832;28;20042;-92
2023/09/16 06:37:10;;;;;;;2.95;2.55;;;20.80;99.90;;;;;;5087646;28;20025;-90
2023/09/16 06:39:37;;;;;;;4.95;2.60;;;20.80;99.90;;;;;;5087400;28;20028;-88
2023/09/16 06:42:04;;;;;;;2.92;2.40;;;20.90;99.90;;;;;;5089082;28;20111;-86
2023/09/16 06:44:30;;;;;;;3.55;2.40;;;20.90;99.90;;;;;;5089382;28;20068;-89
2023/09/16 06:46:56;;;;;;;3.90;2.45;;;20.90;99.90;;;;;;5093171;28;20121;-91
2023/09/16 06:49:22;;;;;;;4.38;2.50;;;20.90;99.90;;;;;;5092496;28;20016;-90
2023/09/16 06:51:47;;;;;;;2.58;2.20;;;20.90;99.90;;;;;;5091239;28;20263;-89
2023/09/16 06:54:13;;;;;;;4.07;2.53;;;21.00;99.90;;;;;;5091013;28;20035;-85
2023/09/16 06:56:39;;;;;;;3.70;2.33;;;21.00;99.90;;;;;;5090714;28;20020;-92
2023/09/16 06:59:04;;;;;;;4.80;2.50;;;21.00;99.90;;;;;;5092237;28;20027;-85
2023/09/16 07:01:30;;;;;;;3.60;2.47;;;21.10;99.90;;;;;;5096126;28;20027;-85
2023/09/16 07:03:57;;;;;;;6.13;2.60;;;21.00;99.90;;;;;;5113750;28;20084;-88
2023/09/16 07:06:23;;;;;;;2.80;2.38;;;21.00;99.90;;;;;;5115021;28;20042;-89
2023/09/16 07:08:48;;;;;;;4.15;2.47;;;21.00;99.90;;;;;;5111359;28;20027;-90
2023/09/16 07:11:15;;;;;;;3.80;2.50;;;21.00;99.90;;;;;;5113191;28;20024;-88
2023/09/16 07:13:40;;;;;;;3.15;2.50;;;21.00;99.90;;;;;;5111813;28;20027;-84
2023/09/16 07:16:06;;;;;;;3.42;2.20;;;21.00;99.90;;;;;;5112489;28;20027;-84
2023/09/16 07:18:32;;;;;;;4.18;2.45;;;21.00;99.90;;;;;;5112596;28;20020;-88
2023/09/16 07:20:57;;;;;;;4.07;2.22;;;21.10;99.90;;;;;;5113365;28;20034;-87
2023/09/16 07:23:23;;;;;;;2.55;2.35;;;21.10;99.90;;;;;;5112431;28;20068;-90
2023/09/16 07:25:57;;;;;;;3.05;2.38;;;21.10;99.90;;;;;;5112427;28;20772;-89
2023/09/16 07:28:24;;;;;;;6.05;2.47;;;21.10;99.90;;;;;;5112382;28;20106;-86
2023/09/16 07:30:50;;;;;;;3.43;2.10;;;21.10;99.90;;;;;;5112494;28;20559;-83
2023/09/16 07:33:15;;;;;;;7.00;2.63;;;21.20;99.90;;;;;;5112172;28;20526;-83
2023/09/16 07:35:41;;;;;;;3.17;2.47;;;21.20;99.90;;;;;;5112272;28;20031;-83
2023/09/16 07:38:08;;;;;;;8.95;2.50;;;21.20;99.90;;;;;;5112318;28;20065;-84
2023/09/16 07:40:35;;;;;;;16.33;3.35;;;21.20;99.90;;;;;;5110813;28;20066;-88
2023/09/16 07:43:01;;;;;;;6.22;2.22;;;21.30;99.90;;;;;;5128061;27;20024;-83
2023/09/16 07:45:27;;;;;;;2.63;2.40;;;21.30;99.90;;;;;;5111283;28;20046;-84
2023/09/16 07:47:53;;;;;;;3.05;2.40;;;21.30;99.90;;;;;;5112144;28;20066;-87
2023/09/16 07:50:19;;;;;;;2.90;2.35;;;21.40;99.90;;;;;;5110774;28;20016;-83
2023/09/16 07:52:44;;;;;;;3.10;2.30;;;21.40;99.90;;;;;;5112060;28;20038;-89
2023/09/16 07:55:10;;;;;;;2.97;2.40;;;21.40;99.90;;;;;;5109995;28;20022;-84
2023/09/16 07:57:36;;;;;;;4.32;2.78;;;21.50;99.90;;;;;;5112047;28;20039;-89
2023/09/16 08:00:07;;;;;;;3.75;2.78;;;21.50;99.90;;;;;;5112245;28;20052;-83
2023/09/16 08:02:33;;;;;;;4.28;2.55;;;21.50;99.90;;;;;;5111892;28;20023;-83
2023/09/16 08:04:59;;;;;;;6.47;3.13;;;21.60;99.90;;;;;;5112576;28;20375;-83
2023/09/16 08:07:24;;;;;;;3.03;2.22;;;21.60;99.90;;;;;;5110432;28;20509;-84
2023/09/16 08:09:50;;;;;;;3.72;2.58;;;21.60;99.90;;;;;;5111572;28;20028;-89
2023/09/16 08:12:17;;;;;;;4.28;2.70;;;21.60;99.90;;;;;;5110556;28;20027;-90
2023/09/16 08:14:43;;;;;;;3.92;2.67;;;21.60;99.90;;;;;;5111443;28;20396;-89
2023/09/16 08:17:08;;;;;;;4.45;2.63;;;21.60;99.90;;;;;;5110265;28;20474;-83
2023/09/16 08:19:34;;;;;;;6.50;2.80;;;21.60;99.90;;;;;;5111665;28;20077;-83
2023/09/16 08:21:59;;;;;;;3.72;2.70;;;21.60;99.90;;;;;;5112382;27;20115;-86
2023/09/16 08:24:25;;;;;;;4.78;2.75;;;21.60;99.90;;;;;;5110614;28;20483;-88
2023/09/16 08:26:51;;;;;;;3.92;2.78;;;21.70;99.90;;;;;;5111281;28;20066;-88
2023/09/16 08:29:16;;;;;;;10.88;3.25;;;21.60;99.90;;;;;;5110050;28;20027;-84
2023/09/16 08:31:42;;;;;;;5.95;2.70;;;21.70;99.90;;;;;;5110933;28;20544;-88
2023/09/16 08:34:09;;;;;;;3.33;3.03;;;21.70;99.90;;;;;;5111224;28;20026;-88
2023/09/16 08:36:34;;;;;;;5.78;3.20;;;21.80;99.90;;;;;;5110132;28;20107;-83
2023/09/16 08:39:00;;;;;;;4.35;2.88;;;21.80;99.90;;;;;;5111671;28;20446;-84
2023/09/16 08:41:33;;;;;;;6.40;2.90;;;21.90;99.90;;;;;;5110894;28;20032;-88
2023/09/16 08:44:04;;;;;;;5.15;3.00;;;21.90;99.90;;;;;;5111898;28;20114;-86
2023/09/16 08:46:32;;;;;;;5.97;3.15;;;21.90;99.90;;;;;;5112085;28;20463;-87
2023/09/16 08:49:00;;;;;;;3.30;2.80;;;22.00;99.90;;;;;;5111030;28;20015;-89
2023/09/16 08:51:29;;;;;;;5.15;3.35;;;22.20;99.90;;;;;;5109800;28;20023;-85
2023/09/16 08:53:56;;;;;;;6.97;4.47;;;22.20;99.90;;;;;;5109620;28;20084;-89
2023/09/16 08:56:22;;;;;;;7.20;5.55;;;22.40;99.90;;;;;;5110520;28;20027;-84
2023/09/16 08:58:47;;;;;;;9.60;5.18;;;22.50;99.90;;;;;;5110509;28;20019;-89
2023/09/16 09:01:16;;;;;;;8.45;4.93;;;22.60;99.90;;;;;;5110765;28;20024;-87
2023/09/16 09:03:42;;;;;;;7.03;4.40;;;22.70;99.90;;;;;;5110550;28;20022;-89
2023/09/16 09:06:08;;;;;;;4.85;4.20;;;22.70;99.90;;;;;;5108822;28;20043;-85
2023/09/16 09:08:34;;;;;;;6.05;3.65;;;22.70;99.90;;;;;;5110881;28;20028;-85
2023/09/16 09:10:59;;;;;;;5.00;4.15;;;22.80;99.90;;;;;;5110842;28;20475;-87
2023/09/16 09:13:29;;;;;;;8.05;4.22;;;22.90;99.90;;;;;;5110441;28;20020;-91
2023/09/16 09:15:59;;;;;;;7.53;4.18;;;23.00;99.90;;;;;;5110532;28;20212;-90
2023/09/16 09:18:27;;;;;;;7.13;4.20;;;23.10;99.90;;;;;;5110516;28;20201;-89
2023/09/16 09:20:53;;;;;;;;;;;23.20;99.90;;;;;;5110649;28;20031;-90
2023/09/16 09:23:19;;;;;;;8.70;4.10;;;23.20;99.90;;;;;;5127097;27;20426;-92
2023/09/16 09:25:44;;;;;;;6.30;4.38;;;23.20;99.90;;;;;;5110494;28;20111;-89
2023/09/16 09:28:13;;;;;;;7.43;4.10;;;23.00;99.90;;;;;;5109256;28;20035;-89
2023/09/16 09:30:41;;;;;;;4.63;3.75;;;23.00;99.90;;;;;;5109530;28;20052;-89
2023/09/16 09:33:10;;;;;;;;;;;22.90;99.90;;;;;;5127380;27;20478;-88
2023/09/16 09:35:36;;;;;;;11.18;4.00;;;22.80;99.90;;;;;;5111081;28;19903;-87
2023/09/16 09:38:02;;;;;;;7.10;4.05;;;22.70;99.90;;;;;;5115049;28;20034;-92
2023/09/16 09:40:29;;;;;;;13.73;4.55;;;22.60;99.90;;;;;;5123165;28;20106;-94
2023/09/16 09:42:56;;;;;;;11.93;4.47;;;22.60;99.90;;;;;;5114473;28;20053;-90
2023/09/16 09:45:32;;;;;;;10.43;4.57;;;22.50;99.90;;;;;;5130260;28;20087;-92
2023/09/16 09:48:02;;;;;;;9.88;4.60;;;22.60;99.90;;;;;;5126244;28;20733;-90
2023/09/16 09:50:30;;;;;;;7.50;4.63;;;22.40;99.90;;;;;;5122736;28;20068;-93
2023/09/16 09:52:59;;;;;;;;;;;22.20;99.90;;;;;;5106030;28;20501;-91
2023/09/16 09:55:29;;;;;;;6.35;4.60;;;22.20;99.90;;;;;;5090870;28;19957;-90
2023/09/16 09:57:55;;;;;;;12.77;4.97;;;22.10;99.90;;;;;;5088202;28;20020;-88
2023/09/16 10:00:23;;;;;;;8.68;4.85;;;22.10;99.90;;;;;;5091810;28;20063;-89
2023/09/16 10:02:50;;;;;;;7.65;5.07;;;22.00;99.90;;;;;;5087365;28;20059;-87
2023/09/16 10:05:19;;;;;;;12.73;5.60;;;22.00;99.90;;;;;;5092134;28;20119;-89
2023/09/16 10:07:46;;;;;;;8.65;4.32;;;22.00;99.90;;;;;;5091075;28;20028;-89
2023/09/16 10:10:32;;;;;;;10.77;4.63;;;21.90;99.90;;;;;;5097201;28;20013;-89
2023/09/16 10:12:58;;;;;;;9.38;5.25;;;21.90;99.90;;;;;;5090218;28;20307;-90
2023/09/16 10:15:32;;;;;;;10.50;5.18;;;21.90;99.90;;;;;;5089274;28;20020;-89
2023/09/16 10:17:58;;;;;;;8.77;4.90;;;21.80;99.90;;;;;;5091816;28;20031;-92
2023/09/16 10:20:26;;;;;;;9.30;4.90;;;21.90;99.90;;;;;;5093715;28;20055;-95
2023/09/16 10:22:52;;;;;;;6.95;4.95;;;22.00;99.90;;;;;;5095768;28;20027;-92
2023/09/16 10:25:18;;;;;;;8.63;5.20;;;22.10;99.90;;;;;;5092750;28;20111;-89
2023/09/16 10:27:56;;;;;;;10.50;5.00;;;22.20;99.90;;;;;;5094628;28;20107;-89
2023/09/16 10:30:22;;;;;;;;;;;22.20;99.90;;;;;;5097136;28;20063;-90
2023/09/16 10:32:48;;;;;;;7.50;4.80;;;22.10;99.90;;;;;;5094792;28;20371;-91
2023/09/16 10:35:14;;;;;;;8.85;5.68;;;22.10;99.90;;;;;;5093326;28;20066;-92
2023/09/16 10:37:44;;;;;;;7.85;4.90;;;22.10;99.90;;;;;;5094052;28;20028;-91
2023/09/16 10:40:12;;;;;;;7.95;4.88;;;22.20;99.90;;;;;;5093412;28;20085;-87
2023/09/16 10:42:39;;;;;;;10.48;4.78;;;22.40;99.90;;;;;;5093913;28;20115;-87
2023/09/16 10:45:11;;;;;;;6.70;5.22;;;22.50;99.90;;;;;;5097944;28;20046;-86
2023/09/16 10:47:37;;;;;;;7.43;4.63;;;22.60;99.90;;;;;;5094000;28;20044;-88
2023/09/16 10:50:02;;;;;;;7.05;4.70;;;22.60;99.90;;;;;;5092843;28;20054;-89
2023/09/16 10:53:04;;;;;;;6.45;4.68;;;22.60;99.90;;;;;;5092990;28;20115;-91
2023/09/16 10:55:51;;;;;;;7.32;4.70;;;22.70;99.90;;;;;;5081288;28;20104;-89
2023/09/16 10:58:31;;;;;;;8.17;4.93;;;22.60;99.90;;;;;;5091519;28;20426;-88
2023/09/16 11:00:58;;;;;;;8.77;5.53;;;22.60;99.90;;;;;;5091341;28;20056;-90
2023/09/16 11:03:30;;;;;;;8.40;5.20;;;22.70;99.90;;;;;;5091590;28;20028;-88
2023/09/16 11:06:04;;;;;;;5.88;4.97;;;22.70;99.90;;;;;;5091561;28;20023;-88
2023/09/16 11:08:29;;;;;;;6.45;5.20;;;22.70;99.90;;;;;;5092794;28;20559;-87
2023/09/16 11:10:58;;;;;;;8.90;5.25;;;22.70;99.90;;;;;;5092338;28;20103;-93
2023/09/16 11:13:28;;;;;;;8.32;5.35;;;22.70;99.90;;;;;;5092532;28;20375;-88
2023/09/16 11:15:58;;;;;;;8.57;5.85;;;22.80;99.90;;;;;;5092635;28;20016;-92
2023/09/16 11:18:24;;;;;;;6.85;5.18;;;22.80;99.90;;;;;;5091446;28;20028;-89
2023/09/16 11:20:51;;;;;;;7.40;4.70;;;22.70;99.90;;;;;;5091633;28;20162;-87
2023/09/16 11:23:17;;;;;;;8.48;5.15;;;22.80;99.90;;;;;;5092372;28;20099;-86
2023/09/16 11:25:43;;;;;;;7.45;4.85;;;22.70;99.90;;;;;;5092311;28;20467;-86
2023/09/16 11:28:16;;;;;;;7.78;4.78;;;22.80;99.90;;;;;;5094549;28;20109;-90
2023/09/16 11:31:02;;;;;;;7.32;4.68;;;22.80;99.90;;;;;;5091629;28;20049;-86
2023/09/16 11:33:33;;;;;;;5.38;4.00;;;22.90;99.90;;;;;;5091867;28;20106;-94
2023/09/16 11:36:16;;;;;;;6.18;4.40;;;22.80;99.90;;;;;;5091997;28;20472;-93
2023/09/16 11:39:18;;;;;;;6.65;4.30;;;22.90;99.90;;;;;;5092685;28;20103;-86
2023/09/16 11:41:45;;;;;;;8.80;4.40;;;23.00;99.90;;;;;;5090766;28;20479;-93
2023/09/16 11:44:12;;;;;;;6.35;3.75;;;22.90;99.90;;;;;;5091674;28;20040;-94
2023/09/16 11:46:39;;;;;;;5.78;4.32;;;23.00;99.90;;;;;;5091819;28;20047;-87
2023/09/16 11:49:05;;;;;;;9.68;4.72;;;22.90;99.90;;;;;;5090990;28;20016;-89
2023/09/16 11:51:36;;;;;;;4.43;3.50;;;23.00;99.90;;;;;;5095151;28;20031;-93
2023/09/16 11:54:02;;;;;;;4.85;3.55;;;23.00;99.90;;;;;;5098014;28;20024;-87
2023/09/16 11:56:30;;;;;;;5.35;3.78;;;23.00;99.90;;;;;;5096559;28;20528;-90
2023/09/16 11:58:57;;;;;;;5.03;4.20;;;23.10;99.90;;;;;;5093312;28;20028;-90
2023/09/16 12:01:35;;;;;;;7.18;4.07;;;23.10;99.90;;;;;;5094212;28;20425;-90
2023/09/16 12:04:04;;;;;;;6.63;4.25;;;23.20;99.90;;;;;;5096164;28;20024;-92
2023/09/16 12:06:31;;;;;;;6.28;4.35;;;23.10;99.90;;;;;;5091864;28;20043;-91
2023/09/16 12:08:59;;;;;;;8.32;4.38;;;23.10;99.90;;;;;;5092418;28;20020;-93
2023/09/16 12:11:26;;;;;;;4.72;4.13;;;23.20;99.90;;;;;;5092288;28;20039;-91
2023/09/16 12:13:53;;;;;;;6.03;3.78;;;23.20;99.90;;;;;;5090943;28;20024;-90
2023/09/16 12:16:18;;;;;;;5.75;4.13;;;23.20;99.90;;;;;;5092431;28;20032;-91
2023/09/16 12:18:44;;;;;;;6.53;4.00;;;23.20;99.90;;;;;;5090842;28;20108;-88
2023/09/16 12:21:12;;;;;;;6.40;4.18;;;23.20;99.90;;;;;;5091955;28;20119;-93
2023/09/16 12:23:39;;;;;;;6.10;3.97;;;23.20;99.90;;;;;;5092639;28;20368;-91
2023/09/16 12:26:10;;;;;;;4.63;3.67;;;23.30;99.90;;;;;;5092124;28;20111;-89
2023/09/16 12:28:38;;;;;;;4.85;3.90;;;23.20;99.90;;;;;;5092219;28;20035;-92
2023/09/16 12:31:07;;;;;;;7.28;3.80;;;23.30;99.90;;;;;;5091888;28;20485;-95
2023/09/16 12:33:48;;;;;;;6.38;3.80;;;23.40;99.90;;;;;;5090914;28;20055;-90
2023/09/16 12:36:29;;;;;;;5.95;3.97;;;23.40;99.90;;;;;;5092019;28;20024;-91
2023/09/16 12:38:58;;;;;;;4.75;4.05;;;23.50;99.90;;;;;;5092138;28;20031;-94
2023/09/16 12:41:26;;;;;;;4.30;3.75;;;23.50;99.90;;;;;;5091219;28;20031;-93
2023/09/16 12:43:53;;;;;;;6.55;4.80;;;23.50;99.90;;;;;;5090260;28;20027;-90
2023/09/16 12:46:20;;;;;;;7.40;4.40;;;23.60;99.90;;;;;;5090281;28;20029;-92
2023/09/16 12:48:48;;;;;;;8.45;4.20;;;23.60;99.90;;;;;;5090711;28;20111;-89